Time;durP1;ratioP1;P1;durP2;ratioP2;P2;SDS_P1;SDS_P2;PMS_P1;PMS_P2;Temp;Humidity;BMP_temperature;BMP_pressure;BME280_temperature;BME280_humidity;BME280_pressure;Samples;Min_cycle;Max_cycle;Signal;HPM_P1;HPM_P2
2022/04/20 00:00:13;;;;;;;6.50;2.08;;;10.90;51.20;;;;;;9181930;19;20463;-63
2022/04/20 00:03:19;;;;;;;3.95;2.15;;;10.90;51.20;;;;;;9181678;19;20017;-63
2022/04/20 00:06:24;;;;;;;8.30;2.47;;;10.80;51.80;;;;;;9183740;19;20018;-64
2022/04/20 00:09:31;;;;;;;2.95;2.13;;;10.80;51.30;;;;;;9180235;19;20014;-64
2022/04/20 00:12:39;;;;;;;5.88;2.65;;;10.70;51.30;;;;;;9179778;19;20102;-64
2022/04/20 00:15:44;;;;;;;7.00;2.28;;;10.70;51.30;;;;;;9183334;19;20034;-64
2022/04/20 00:18:50;;;;;;;2.70;2.28;;;10.60;51.30;;;;;;9181605;19;20047;-64
2022/04/20 00:21:59;;;;;;;4.15;2.10;;;10.60;51.40;;;;;;9174737;19;20011;-64
2022/04/20 00:25:07;;;;;;;3.42;2.22;;;10.50;51.40;;;;;;9181755;19;20015;-64
2022/04/20 00:28:12;;;;;;;5.25;2.38;;;10.50;51.50;;;;;;9179609;19;20017;-64
2022/04/20 00:31:18;;;;;;;5.60;2.60;;;10.50;51.60;;;;;;9181243;19;20015;-64
2022/04/20 00:34:23;;;;;;;5.38;3.28;;;10.40;51.60;;;;;;9180714;19;20014;-64
2022/04/20 00:37:29;;;;;;;6.15;2.60;;;10.40;51.60;;;;;;9181377;19;20475;-64
2022/04/20 00:40:37;;;;;;;4.45;2.08;;;10.30;51.60;;;;;;9184830;19;20378;-63
2022/04/20 00:43:43;;;;;;;8.50;2.30;;;10.30;51.70;;;;;;9190923;19;20019;-64
2022/04/20 00:46:49;;;;;;;3.88;2.60;;;10.30;51.70;;;;;;9190301;19;20015;-63
2022/04/20 00:49:55;;;;;;;3.97;2.42;;;10.20;51.80;;;;;;9187299;19;20014;-64
2022/04/20 00:53:00;;;;;;;5.93;2.55;;;10.10;51.80;;;;;;9189901;19;20015;-64
2022/04/20 00:56:10;;;;;;;8.25;2.70;;;10.10;51.80;;;;;;9190026;19;20535;-64
2022/04/20 00:59:16;;;;;;;5.05;2.35;;;10.10;51.90;;;;;;9189144;19;20043;-63
2022/04/20 01:02:22;;;;;;;5.50;2.33;;;10.00;51.90;;;;;;9188598;19;20017;-63
2022/04/20 01:05:31;;;;;;;3.60;2.22;;;10.00;52.00;;;;;;9190096;19;20018;-64
2022/04/20 01:08:57;;;;;;;6.15;3.13;;;9.90;52.00;;;;;;9187018;19;20036;-64
2022/04/20 01:12:25;;;;;;;6.47;3.25;;;9.90;52.10;;;;;;9188177;19;20790;-64
2022/04/20 01:15:50;;;;;;;5.13;2.97;;;9.80;52.10;;;;;;9188066;19;20371;-64
2022/04/20 01:19:11;;;;;;;7.20;2.78;;;9.80;52.10;;;;;;9184076;19;20372;-63
2022/04/20 01:22:29;;;;;;;4.88;2.78;;;9.70;52.10;;;;;;9183303;19;20017;-64
2022/04/20 01:26:10;;;;;;;4.22;2.45;;;9.70;52.20;;;;;;9183866;19;20393;-64
2022/04/20 01:29:24;;;;;;;4.55;2.60;;;9.70;52.30;;;;;;9184726;19;20048;-65
2022/04/20 01:32:38;;;;;;;4.88;2.50;;;9.60;52.30;;;;;;9187797;19;20366;-64
2022/04/20 01:35:47;;;;;;;6.07;2.40;;;9.60;52.30;;;;;;9188120;19;20021;-64
2022/04/20 01:38:55;;;;;;;4.53;2.60;;;9.50;52.40;;;;;;9187840;19;20014;-64
2022/04/20 01:42:00;;;;;;;4.55;2.78;;;9.50;52.50;;;;;;9187023;19;20018;-64
2022/04/20 01:45:07;;;;;;;4.97;2.75;;;9.50;52.50;;;;;;9187381;19;20010;-64
2022/04/20 01:48:30;;;;;;;7.85;3.08;;;9.50;52.60;;;;;;9188663;19;20010;-64
2022/04/20 01:51:55;;;;;;;8.48;3.17;;;9.40;52.60;;;;;;9185468;19;20007;-64
2022/04/20 01:55:27;;;;;;;4.85;2.75;;;9.40;52.70;;;;;;9185727;19;20026;-63
2022/04/20 01:59:09;;;;;;;5.75;2.38;;;9.30;52.70;;;;;;9185363;19;20018;-63
2022/04/20 02:02:38;;;;;;;4.03;2.20;;;9.30;52.70;;;;;;9187380;19;20022;-64
2022/04/20 02:06:02;;;;;;;6.68;3.15;;;9.30;52.70;;;;;;9186068;19;20478;-64
2022/04/20 02:09:20;;;;;;;7.78;2.33;;;9.20;52.70;;;;;;9183562;19;20102;-64
2022/04/20 02:12:40;;;;;;;7.45;4.30;;;9.20;52.80;;;;;;9185080;19;20022;-64
2022/04/20 02:15:54;;;;;;;3.67;2.45;;;9.20;52.90;;;;;;9181040;19;20044;-64
2022/04/20 02:19:34;;;;;;;3.75;2.53;;;9.10;52.90;;;;;;9184881;19;20021;-63
2022/04/20 02:22:53;;;;;;;7.35;2.92;;;9.10;52.90;;;;;;9181682;19;20010;-63
2022/04/20 02:25:58;;;;;;;6.88;3.00;;;9.10;53.10;;;;;;9185874;19;20479;-63
2022/04/20 02:29:06;;;;;;;4.07;2.42;;;9.00;53.00;;;;;;9185687;19;20018;-63
2022/04/20 02:32:11;;;;;;;7.10;2.60;;;9.00;53.10;;;;;;9185273;19;20070;-63
2022/04/20 02:35:16;;;;;;;6.03;2.63;;;9.00;53.20;;;;;;9185974;19;20516;-64
2022/04/20 02:38:22;;;;;;;4.70;2.72;;;8.90;53.20;;;;;;9184709;19;20015;-63
2022/04/20 02:41:27;;;;;;;4.15;2.85;;;8.90;53.30;;;;;;9186850;19;20011;-63
2022/04/20 02:44:36;;;;;;;5.28;2.72;;;8.90;53.40;;;;;;9187162;19;20018;-63
2022/04/20 02:47:41;;;;;;;5.13;2.75;;;8.90;53.40;;;;;;9184379;19;20014;-63
2022/04/20 02:50:46;;;;;;;3.60;2.58;;;8.90;53.40;;;;;;9183047;19;20015;-63
2022/04/20 02:53:52;;;;;;;4.55;2.45;;;8.90;53.50;;;;;;9184480;19;20355;-63
2022/04/20 02:56:58;;;;;;;3.30;2.22;;;8.90;53.50;;;;;;9183709;19;20077;-63
2022/04/20 03:00:06;;;;;;;4.28;2.90;;;8.80;53.60;;;;;;9183760;19;20815;-62
2022/04/20 03:03:17;;;;;;;;;;;8.80;53.60;;;;;;9184211;19;20014;-63
2022/04/20 03:06:22;;;;;;;5.45;3.25;;;8.80;53.60;;;;;;9184404;19;19926;-63
2022/04/20 03:09:27;;;;;;;4.53;2.55;;;8.80;53.50;;;;;;9181141;19;20019;-63
2022/04/20 03:12:32;;;;;;;6.50;3.53;;;8.70;53.60;;;;;;9184118;19;20371;-63
2022/04/20 03:15:40;;;;;;;5.10;2.67;;;8.70;53.70;;;;;;9184043;19;20018;-63
2022/04/20 03:18:45;;;;;;;5.38;2.83;;;8.70;53.80;;;;;;9184320;19;20054;-62
2022/04/20 03:21:56;;;;;;;5.03;3.42;;;8.70;53.80;;;;;;9178348;19;20002;-63
2022/04/20 03:25:05;;;;;;;5.22;2.80;;;8.70;53.90;;;;;;9183390;19;20783;-63
2022/04/20 03:28:36;;;;;;;4.93;3.03;;;8.60;53.90;;;;;;9181731;19;20019;-63
2022/04/20 03:31:44;;;;;;;8.32;3.42;;;8.60;53.90;;;;;;9182546;19;20022;-63
2022/04/20 03:34:50;;;;;;;10.30;2.83;;;8.60;54.00;;;;;;9183360;19;20665;-63
2022/04/20 03:37:55;;;;;;;3.63;2.60;;;8.60;54.00;;;;;;9182217;19;20025;-63
2022/04/20 03:41:00;;;;;;;7.07;2.85;;;8.60;54.10;;;;;;9182862;19;20010;-63
2022/04/20 03:44:05;;;;;;;4.93;2.83;;;8.50;54.10;;;;;;9182799;19;20884;-63
2022/04/20 03:47:12;;;;;;;7.25;3.22;;;8.50;54.20;;;;;;9182162;19;20021;-63
2022/04/20 03:50:18;;;;;;;5.43;2.83;;;8.50;54.20;;;;;;9182401;19;20015;-63
2022/04/20 03:53:23;;;;;;;8.35;3.22;;;8.50;54.30;;;;;;9182973;19;20018;-63
2022/04/20 03:57:03;;;;;;;6.80;3.42;;;8.50;54.30;;;;;;9181337;19;20019;-62
2022/04/20 03:59:57;;;;;;;4.32;3.00;;;8.40;54.30;;;;;;9181226;19;20495;-62
2022/04/20 04:03:04;;;;;;;7.78;3.20;;;8.40;54.30;;;;;;9182278;19;20014;-63
2022/04/20 04:06:11;;;;;;;8.48;3.22;;;8.40;54.50;;;;;;9180490;19;20356;-62
2022/04/20 04:09:16;;;;;;;7.25;3.58;;;8.30;54.40;;;;;;9179814;19;20023;-63
2022/04/20 04:12:25;;;;;;;5.13;3.22;;;8.30;54.50;;;;;;9180318;19;20025;-63
2022/04/20 04:15:36;;;;;;;5.85;3.25;;;8.30;54.60;;;;;;9180284;19;20011;-63
2022/04/20 04:18:43;;;;;;;5.85;3.03;;;8.30;54.60;;;;;;9181720;19;20554;-63
2022/04/20 04:21:49;;;;;;;6.22;2.95;;;8.20;54.60;;;;;;9177326;19;20010;-63
2022/04/20 04:24:54;;;;;;;9.10;3.67;;;8.20;54.70;;;;;;9181924;19;20018;-63
2022/04/20 04:27:59;;;;;;;8.05;3.45;;;8.20;54.70;;;;;;9181232;19;20018;-63
2022/04/20 04:31:04;;;;;;;6.43;3.15;;;8.20;54.80;;;;;;9180903;19;20086;-63
2022/04/20 04:34:14;;;;;;;6.53;3.40;;;8.20;54.90;;;;;;9181584;19;21065;-63
2022/04/20 04:37:19;;;;;;;6.05;2.90;;;8.10;54.90;;;;;;9180146;19;20376;-63
2022/04/20 04:40:30;;;;;;;6.38;3.55;;;8.10;54.90;;;;;;9179432;19;20007;-63
2022/04/20 04:43:36;;;;;;;9.88;3.35;;;8.10;55.00;;;;;;9179802;19;20018;-63
2022/04/20 04:50:11;;;;;;;6.53;3.38;;;8.10;55.10;;;;;;9180082;19;20364;-63
2022/04/20 04:53:16;;;;;;;8.20;3.15;;;8.10;55.20;;;;;;9179861;19;20018;-63
2022/04/20 04:56:21;;;;;;;9.52;3.78;;;8.10;55.20;;;;;;9180156;19;20022;-63
2022/04/20 04:59:27;;;;;;;9.82;3.35;;;8.00;55.20;;;;;;9180477;19;20006;-63
2022/04/20 05:02:33;;;;;;;8.65;3.13;;;8.00;55.20;;;;;;9178903;19;20869;-62
2022/04/20 05:05:41;;;;;;;5.78;3.20;;;8.00;55.90;;;;;;9180970;19;20352;-63
2022/04/20 05:08:46;;;;;;;7.78;3.83;;;8.00;55.40;;;;;;9178737;19;20482;-63
2022/04/20 05:11:52;;;;;;;9.82;3.45;;;7.90;55.40;;;;;;9178362;19;20459;-63
2022/04/20 05:14:57;;;;;;;6.60;3.30;;;7.90;55.50;;;;;;9179133;19;20046;-63
2022/04/20 05:18:03;;;;;;;5.20;3.00;;;7.90;55.50;;;;;;9181288;19;20116;-63
2022/04/20 05:21:11;;;;;;;6.20;3.30;;;7.80;55.60;;;;;;9175126;19;20101;-62
2022/04/20 05:24:16;;;;;;;5.10;3.33;;;7.80;55.70;;;;;;9178985;19;20037;-63
2022/04/20 05:27:22;;;;;;;7.72;3.72;;;7.80;55.70;;;;;;9184577;19;20007;-63
2022/04/20 05:30:32;;;;;;;6.22;3.60;;;7.80;55.70;;;;;;9186509;19;20014;-63
2022/04/20 05:33:38;;;;;;;6.20;3.22;;;7.90;55.90;;;;;;9185776;19;20022;-63
2022/04/20 05:43:24;;;;;;;5.25;3.25;;;7.90;56.00;;;;;;9186871;19;20047;-63
2022/04/20 05:46:31;;;;;;;7.07;3.30;;;7.90;56.10;;;;;;9187531;19;20013;-63
2022/04/20 05:49:43;;;;;;;6.63;3.08;;;8.00;56.30;;;;;;9187138;19;20014;-63
2022/04/20 05:52:53;;;;;;;5.95;3.75;;;8.10;56.30;;;;;;9184934;19;20030;-63
2022/04/20 05:55:58;;;;;;;8.10;3.60;;;8.10;56.40;;;;;;9186693;19;20007;-63
2022/04/20 05:59:03;;;;;;;11.50;3.60;;;8.30;56.50;;;;;;9184399;19;20014;-63
2022/04/20 06:02:11;;;;;;;5.38;3.35;;;8.40;56.70;;;;;;9180331;19;20018;-64
2022/04/20 06:05:16;;;;;;;5.68;3.33;;;8.50;56.80;;;;;;9182599;19;20030;-63
2022/04/20 06:08:31;;;;;;;5.30;3.65;;;8.70;56.80;;;;;;9183093;19;20443;-63
2022/04/20 06:11:59;;;;;;;6.15;3.70;;;8.90;56.90;;;;;;9185409;19;20022;-64
2022/04/20 06:15:23;;;;;;;5.57;3.40;;;9.10;56.90;;;;;;9176217;19;20050;-64
2022/04/20 06:18:47;;;;;;;8.60;3.40;;;9.20;56.80;;;;;;9171227;19;20039;-64
2022/04/20 06:21:59;;;;;;;3.88;2.78;;;9.40;56.70;;;;;;9168963;19;20364;-63
2022/04/20 06:25:20;;;;;;;10.88;3.42;;;9.60;56.70;;;;;;9175226;19;20022;-64
2022/04/20 06:29:04;;;;;;;11.38;3.38;;;9.80;56.70;;;;;;9169923;19;20032;-65
2022/04/20 06:32:47;;;;;;;6.10;3.38;;;10.00;56.70;;;;;;9165324;19;20396;-66
2022/04/20 06:36:08;;;;;;;5.93;3.83;;;10.30;56.70;;;;;;9171053;19;20018;-65
2022/04/20 06:39:43;;;;;;;6.07;3.40;;;10.50;56.60;;;;;;9171393;19;20689;-64
2022/04/20 06:43:11;;;;;;;5.85;3.00;;;10.70;56.50;;;;;;9170989;19;20018;-63
2022/04/20 06:46:38;;;;;;;9.27;3.40;;;10.90;56.40;;;;;;9180296;19;20018;-63
2022/04/20 06:49:53;;;;;;;5.97;3.45;;;11.10;56.30;;;;;;9182503;19;20472;-63
2022/04/20 07:00:09;;;;;;;4.47;2.95;;;11.60;56.00;;;;;;9185105;19;20336;-62
2022/04/20 07:03:38;;;;;;;7.88;3.17;;;11.80;55.80;;;;;;9183182;19;20010;-62
2022/04/20 07:07:13;;;;;;;6.47;3.10;;;11.90;55.70;;;;;;9180678;19;20011;-62
2022/04/20 07:10:35;;;;;;;11.75;3.03;;;12.10;55.60;;;;;;9183318;19;20014;-63
2022/04/20 07:13:42;;;;;;;9.32;3.38;;;12.20;55.50;;;;;;9180639;19;20010;-62
2022/04/20 07:16:50;;;;;;;5.68;2.90;;;12.30;55.40;;;;;;9182805;19;20186;-63
2022/04/20 07:20:00;;;;;;;5.72;3.10;;;12.40;55.40;;;;;;9182807;19;20021;-63
2022/04/20 07:23:19;;;;;;;5.30;3.20;;;12.60;55.30;;;;;;9178821;19;20018;-69
2022/04/20 07:26:30;;;;;;;7.82;3.00;;;12.70;55.20;;;;;;9184112;19;20018;-70
2022/04/20 07:29:43;;;;;;;6.63;2.90;;;12.90;55.20;;;;;;9183277;19;20014;-64
2022/04/20 07:33:02;;;;;;;7.75;3.05;;;13.00;55.10;;;;;;9181884;19;20018;-67
2022/04/20 07:36:21;;;;;;;10.57;3.95;;;13.20;55.10;;;;;;9183477;19;20010;-68
2022/04/20 07:39:35;;;;;;;6.60;3.10;;;13.30;55.00;;;;;;9183866;19;20022;-67
2022/04/20 07:42:59;;;;;;;4.45;2.70;;;13.50;55.00;;;;;;9182635;19;20070;-68
2022/04/20 07:46:24;;;;;;;10.35;3.28;;;13.60;54.80;;;;;;9183752;19;20491;-70
2022/04/20 07:53:18;;;;;;;2.97;2.55;;;13.90;54.70;;;;;;9178621;19;20025;-72
2022/04/20 07:56:42;;;;;;;6.45;2.90;;;14.10;54.50;;;;;;9181763;19;20118;-69
2022/04/20 08:00:22;;;;;;;3.78;2.70;;;14.30;54.30;;;;;;9181312;19;20022;-69
2022/04/20 08:03:47;;;;;;;5.20;2.38;;;14.30;54.00;;;;;;9182337;19;20506;-71
2022/04/20 08:06:54;;;;;;;10.23;3.00;;;14.40;53.90;;;;;;9181699;19;20047;-69
2022/04/20 08:10:00;;;;;;;9.27;3.10;;;14.50;53.80;;;;;;9179676;19;20006;-67
2022/04/20 08:14:09;;;;;;;8.60;2.83;;;14.50;53.70;;;;;;9180411;19;20010;-68
2022/04/20 08:16:31;;;;;;;10.82;2.85;;;14.70;53.70;;;;;;9180994;19;20018;-67
2022/04/20 08:19:56;;;;;;;6.75;2.88;;;14.80;53.60;;;;;;9183105;19;20026;-67
2022/04/20 08:23:26;;;;;;;7.97;3.08;;;14.90;53.50;;;;;;9176460;19;21030;-67
2022/04/20 08:26:32;;;;;;;5.00;2.88;;;15.10;53.40;;;;;;9181740;19;20395;-65
2022/04/20 08:29:37;;;;;;;6.88;3.10;;;15.10;53.20;;;;;;9181806;19;20460;-65
2022/04/20 08:32:42;;;;;;;8.27;3.38;;;15.20;53.10;;;;;;9180432;19;20015;-65
2022/04/20 08:35:47;;;;;;;2.58;2.38;;;15.40;53.00;;;;;;9182102;19;20025;-65
2022/04/20 08:38:55;;;;;;;5.20;2.80;;;15.50;53.00;;;;;;9181350;19;20038;-65
2022/04/20 08:42:03;;;;;;;7.57;3.03;;;15.70;52.80;;;;;;9180443;19;20487;-65
2022/04/20 08:45:08;;;;;;;6.70;2.65;;;15.80;52.60;;;;;;9181839;19;20019;-66
2022/04/20 08:48:13;;;;;;;4.25;2.30;;;16.00;52.50;;;;;;9179529;19;20360;-66
2022/04/20 08:51:20;;;;;;;5.72;2.70;;;16.10;52.30;;;;;;9182522;19;20027;-65
2022/04/20 08:54:27;;;;;;;9.50;2.50;;;16.30;52.00;;;;;;9177911;19;20494;-67
2022/04/20 08:57:35;;;;;;;10.23;2.42;;;16.40;51.80;;;;;;9179567;19;20014;-65
2022/04/20 09:00:40;;;;;;;4.57;2.50;;;16.50;51.60;;;;;;9180633;19;20329;-67
2022/04/20 09:03:46;;;;;;;5.25;2.53;;;16.60;51.50;;;;;;9189320;19;20015;-67
2022/04/20 09:06:54;;;;;;;4.85;2.60;;;16.70;51.30;;;;;;9189174;19;20023;-66
2022/04/20 09:10:01;;;;;;;8.70;2.55;;;16.80;51.70;;;;;;9186669;19;21009;-66
2022/04/20 09:13:08;;;;;;;3.45;2.22;;;16.90;50.80;;;;;;9189246;19;20010;-66
2022/04/20 09:16:14;;;;;;;4.22;2.22;;;17.10;50.70;;;;;;9188532;19;20022;-66
2022/04/20 09:19:26;;;;;;;4.13;2.13;;;17.20;50.50;;;;;;9186764;19;20042;-66
2022/04/20 09:22:34;;;;;;;8.48;2.17;;;17.30;50.20;;;;;;9183537;19;20511;-65
2022/04/20 09:25:48;;;;;;;4.00;2.10;;;17.40;50.00;;;;;;9187237;19;20025;-65
2022/04/20 09:29:07;;;;;;;4.55;2.40;;;17.50;49.80;;;;;;9186625;19;20014;-65
2022/04/20 09:32:15;;;;;;;14.30;2.40;;;17.60;49.50;;;;;;9190557;19;20033;-67
2022/04/20 09:35:21;;;;;;;10.07;2.03;;;17.70;49.50;;;;;;9187313;19;20011;-66
2022/04/20 09:38:26;;;;;;;6.35;1.95;;;17.80;49.30;;;;;;9186991;19;20046;-67
2022/04/20 09:41:33;;;;;;;10.57;2.28;;;17.90;49.10;;;;;;9189492;19;20026;-66
2022/04/20 09:44:40;;;;;;;2.83;1.95;;;18.00;48.90;;;;;;9186290;19;20114;-66
2022/04/20 09:51:10;;;;;;;3.97;2.00;;;18.10;48.60;;;;;;9189522;19;20466;-66
2022/04/20 09:54:27;;;;;;;2.53;1.67;;;18.20;48.40;;;;;;9187208;19;20038;-67
2022/04/20 09:57:37;;;;;;;11.02;1.90;;;18.20;48.00;;;;;;9188699;19;20010;-67
2022/04/20 10:00:43;;;;;;;2.50;1.60;;;18.30;48.10;;;;;;9186986;19;20021;-66
2022/04/20 10:03:55;;;;;;;2.83;1.83;;;18.30;48.00;;;;;;9189168;19;20010;-68
2022/04/20 10:07:00;;;;;;;3.33;1.98;;;18.40;47.80;;;;;;9186773;19;20007;-66
2022/04/20 10:10:07;;;;;;;3.50;2.10;;;18.40;47.70;;;;;;9186740;19;20015;-66
2022/04/20 10:13:14;;;;;;;3.65;1.92;;;18.50;47.60;;;;;;9186036;19;20381;-65
2022/04/20 10:16:17;;;;;;;4.55;2.08;;;18.50;47.50;;;;;;9188091;19;20043;-66
2022/04/20 10:19:28;;;;;;;6.95;2.00;;;18.60;47.50;;;;;;9186010;19;20449;-65
2022/04/20 10:22:34;;;;;;;4.00;1.95;;;18.60;47.20;;;;;;9183806;19;20472;-65
2022/04/20 10:25:41;;;;;;;3.05;1.67;;;18.70;47.20;;;;;;9187846;19;20491;-65
2022/04/20 10:28:59;;;;;;;4.57;2.03;;;18.70;47.10;;;;;;9184943;19;20393;-65
2022/04/20 10:32:11;;;;;;;1.85;1.65;;;18.80;46.90;;;;;;9186069;19;20011;-63
2022/04/20 10:35:16;;;;;;;2.47;1.60;;;18.80;46.80;;;;;;9177201;19;20022;-64
2022/04/20 10:38:32;;;;;;;7.80;1.60;;;18.90;46.80;;;;;;9178226;19;20487;-63
2022/04/20 10:42:25;;;;;;;3.33;1.75;;;19.00;46.80;;;;;;9175856;19;20125;-63
2022/04/20 10:45:37;;;;;;;5.20;1.80;;;19.10;46.50;;;;;;9181338;19;20017;-63
2022/04/20 10:49:07;;;;;;;3.13;1.95;;;19.20;46.50;;;;;;9180342;19;20019;-63
2022/04/20 10:52:25;;;;;;;3.70;2.00;;;19.30;46.60;;;;;;9184014;19;20374;-63
2022/04/20 10:55:53;;;;;;;3.83;1.63;;;19.30;46.30;;;;;;9181667;19;20011;-63
2022/04/20 10:59:11;;;;;;;2.20;2.00;;;19.40;46.00;;;;;;9185786;19;20018;-63
2022/04/20 11:02:20;;;;;;;4.20;2.10;;;19.50;46.00;;;;;;9185980;19;20038;-70
2022/04/20 11:05:26;;;;;;;7.07;1.90;;;19.60;46.00;;;;;;9185242;19;20062;-72
2022/04/20 11:08:31;;;;;;;5.45;1.65;;;19.70;46.10;;;;;;9183467;19;20038;-73
2022/04/20 11:19:13;;;;;;;4.32;1.80;;;19.80;45.60;;;;;;9182638;19;20665;-63
2022/04/20 11:22:47;;;;;;;4.03;1.95;;;19.90;45.80;;;;;;9178422;19;20049;-63
2022/04/20 11:25:52;;;;;;;2.00;1.48;;;20.00;45.80;;;;;;9182282;19;20018;-63
2022/04/20 11:28:59;;;;;;;5.20;1.80;;;20.10;45.70;;;;;;9180963;19;20029;-63
2022/04/20 11:32:09;;;;;;;7.22;1.83;;;20.10;45.40;;;;;;9184919;19;20033;-63
2022/04/20 11:35:25;;;;;;;1.63;1.50;;;20.20;45.20;;;;;;9181563;19;20051;-64
2022/04/20 11:38:38;;;;;;;5.72;1.90;;;20.20;45.20;;;;;;9182242;19;20026;-64
2022/04/20 11:41:46;;;;;;;4.47;1.53;;;20.20;45.10;;;;;;9184528;19;20051;-64
2022/04/20 11:44:52;;;;;;;8.18;1.48;;;20.20;45.20;;;;;;9182569;19;20021;-64
2022/04/20 11:48:03;;;;;;;4.70;1.60;;;20.20;45.10;;;;;;9182982;19;20019;-64
2022/04/20 11:51:29;;;;;;;6.30;1.60;;;20.20;45.00;;;;;;9183396;19;20021;-63
2022/04/20 11:54:34;;;;;;;1.80;1.50;;;20.20;44.90;;;;;;9183444;19;20010;-63
2022/04/20 11:57:42;;;;;;;2.50;1.67;;;20.30;45.00;;;;;;9182488;19;20006;-64
2022/04/20 12:00:48;;;;;;;2.40;1.52;;;20.30;44.80;;;;;;9183679;19;20033;-64
2022/04/20 12:03:55;;;;;;;4.80;2.25;;;20.30;44.80;;;;;;9184029;19;20486;-63
2022/04/20 12:07:04;;;;;;;3.10;1.70;;;20.40;44.70;;;;;;9182818;19;20464;-64
2022/04/20 12:10:11;;;;;;;4.60;1.80;;;20.40;44.60;;;;;;9182582;19;20011;-64
2022/04/20 12:13:16;;;;;;;2.75;1.70;;;20.40;44.50;;;;;;9180657;19;20022;-63
2022/04/20 12:16:21;;;;;;;7.53;1.70;;;20.40;44.40;;;;;;9180716;19;20015;-64
2022/04/20 12:19:27;;;;;;;6.97;1.83;;;20.50;44.50;;;;;;9180686;19;20014;-64
2022/04/20 12:22:34;;;;;;;7.53;1.95;;;20.50;44.30;;;;;;9178878;19;20392;-63
2022/04/20 12:25:40;;;;;;;4.35;1.92;;;20.50;44.20;;;;;;9182430;19;20382;-64
2022/04/20 12:28:45;;;;;;;3.80;2.10;;;20.50;44.10;;;;;;9182563;19;20018;-64
2022/04/20 12:31:54;;;;;;;7.38;1.60;;;20.50;44.00;;;;;;9179992;19;20358;-64
2022/04/20 12:35:01;;;;;;;9.15;1.80;;;20.40;44.00;;;;;;9179787;19;20025;-64
2022/04/20 12:38:13;;;;;;;4.15;2.22;;;20.40;44.10;;;;;;9198312;19;20014;-64
2022/04/20 12:41:38;;;;;;;7.28;1.90;;;20.40;44.10;;;;;;9197827;19;20014;-64
2022/04/20 12:44:51;;;;;;;;;;;20.40;44.00;;;;;;9197662;19;20014;-66
2022/04/20 12:48:04;;;;;;;2.35;1.65;;;20.30;44.20;;;;;;9192105;19;19930;-64
2022/04/20 12:51:23;;;;;;;3.05;2.00;;;20.30;44.30;;;;;;9194630;19;20534;-63
2022/04/20 12:54:31;;;;;;;6.38;1.75;;;20.30;44.20;;;;;;9196952;19;20022;-64
2022/04/20 13:04:12;;;;;;;4.45;2.15;;;20.20;44.30;;;;;;9198005;19;20019;-63
2022/04/20 13:07:17;;;;;;;3.10;2.25;;;20.20;44.30;;;;;;9196922;19;20013;-63
2022/04/20 13:10:27;;;;;;;5.70;1.90;;;20.20;44.40;;;;;;9197238;19;20022;-63
2022/04/20 13:13:32;;;;;;;7.82;2.28;;;20.20;44.30;;;;;;9198821;19;20348;-64
2022/04/20 13:16:38;;;;;;;2.78;2.03;;;20.10;44.20;;;;;;9195238;19;20025;-64
2022/04/20 13:19:43;;;;;;;15.65;2.45;;;20.00;44.30;;;;;;9198813;19;20034;-63
2022/04/20 13:22:48;;;;;;;4.90;1.95;;;20.00;44.30;;;;;;9192760;19;20452;-63
2022/04/20 13:29:16;;;;;;;3.22;1.98;;;19.90;44.40;;;;;;9196158;19;20360;-63
2022/04/20 13:32:20;;;;;;;3.60;2.30;;;19.90;44.40;;;;;;9198668;19;20014;-64
2022/04/20 13:35:26;;;;;;;7.05;2.25;;;19.90;44.30;;;;;;9197179;19;20348;-64
2022/04/20 13:38:31;;;;;;;8.02;2.80;;;19.80;44.30;;;;;;9196506;19;20010;-63
2022/04/20 13:41:39;;;;;;;6.03;2.40;;;19.80;44.30;;;;;;9195900;19;20487;-65
2022/04/20 13:44:44;;;;;;;3.95;1.83;;;19.70;44.20;;;;;;9197412;19;20384;-64
2022/04/20 13:47:49;;;;;;;5.88;2.30;;;19.70;44.20;;;;;;9190861;19;20006;-64
2022/04/20 13:50:54;;;;;;;2.85;2.08;;;19.70;44.30;;;;;;9188157;19;20011;-64
2022/04/20 13:54:00;;;;;;;2.67;1.80;;;19.60;44.20;;;;;;9186856;19;20019;-64
2022/04/20 13:57:07;;;;;;;7.80;2.33;;;19.60;44.30;;;;;;9184368;19;20037;-64
2022/04/20 14:00:13;;;;;;;5.28;2.28;;;19.60;44.30;;;;;;9188547;19;20026;-64
2022/04/20 14:03:19;;;;;;;6.50;1.98;;;19.50;44.20;;;;;;9188619;19;20007;-64
2022/04/20 14:06:23;;;;;;;4.38;2.15;;;19.50;44.30;;;;;;9186570;19;20612;-64
2022/04/20 14:09:33;;;;;;;8.10;2.67;;;19.50;44.30;;;;;;9186223;19;20018;-63
2022/04/20 14:12:41;;;;;;;11.40;2.83;;;19.40;44.30;;;;;;9187817;19;20025;-65
2022/04/20 14:15:46;;;;;;;6.10;2.35;;;19.40;44.30;;;;;;9184957;19;20022;-63
2022/04/20 14:18:51;;;;;;;4.53;2.50;;;19.40;44.30;;;;;;9185846;19;20019;-63
2022/04/20 14:21:57;;;;;;;5.20;2.38;;;19.40;44.50;;;;;;9182987;19;20083;-62
2022/04/20 14:35:00;;;;;;;4.40;2.50;;;19.20;44.60;;;;;;9181035;19;20081;-63
2022/04/20 14:38:05;;;;;;;4.93;2.65;;;19.10;44.60;;;;;;9179764;19;20540;-65
2022/04/20 14:41:13;;;;;;;7.47;2.92;;;19.10;44.60;;;;;;9180427;19;20419;-63
2022/04/20 14:44:20;;;;;;;2.75;2.05;;;19.10;44.80;;;;;;9186186;19;20026;-63
2022/04/20 14:47:25;;;;;;;7.85;2.08;;;19.00;44.90;;;;;;9185816;19;20014;-63
2022/04/20 14:50:30;;;;;;;6.18;2.20;;;19.00;45.00;;;;;;9176207;19;20019;-63
2022/04/20 14:53:35;;;;;;;5.18;2.13;;;19.00;45.00;;;;;;9180080;19;20022;-63
2022/04/20 14:56:40;;;;;;;5.25;2.30;;;19.00;45.10;;;;;;9178513;19;20018;-63
2022/04/20 14:59:47;;;;;;;3.38;2.38;;;18.90;45.10;;;;;;9177050;19;20515;-64
2022/04/20 15:02:53;;;;;;;6.38;1.90;;;18.90;45.20;;;;;;9179846;19;20010;-64
2022/04/20 15:05:58;;;;;;;9.63;2.80;;;18.90;45.30;;;;;;9175515;19;21091;-64
2022/04/20 15:09:03;;;;;;;7.28;2.42;;;18.80;45.20;;;;;;9170419;19;20150;-69
2022/04/20 15:12:10;;;;;;;3.15;2.38;;;18.80;45.30;;;;;;9165483;19;20025;-69
2022/04/20 15:15:17;;;;;;;4.05;2.40;;;18.80;46.10;;;;;;9173444;19;20433;-69
2022/04/20 15:18:22;;;;;;;4.35;2.03;;;18.80;45.50;;;;;;9179263;19;20018;-69
2022/04/20 15:21:27;;;;;;;2.42;1.75;;;18.80;45.50;;;;;;9173449;19;20021;-70
2022/04/20 15:24:33;;;;;;;3.92;2.10;;;18.80;45.50;;;;;;9183435;19;20018;-69
2022/04/20 15:27:38;;;;;;;5.32;2.35;;;18.80;45.50;;;;;;9176257;19;20479;-68
2022/04/20 15:30:46;;;;;;;10.35;2.20;;;18.80;45.50;;;;;;9176627;19;20805;-68
2022/04/20 15:33:51;;;;;;;4.07;2.65;;;18.80;45.60;;;;;;9171363;19;20030;-68
2022/04/20 15:36:57;;;;;;;3.60;2.17;;;18.80;45.50;;;;;;9169647;19;20057;-69
2022/04/20 15:40:02;;;;;;;6.43;2.50;;;18.80;45.50;;;;;;9173838;19;20055;-69
2022/04/20 15:43:09;;;;;;;7.55;2.22;;;18.80;45.50;;;;;;9176439;19;20022;-68
2022/04/20 15:46:17;;;;;;;4.15;2.42;;;18.70;45.50;;;;;;9175685;19;20022;-68
2022/04/20 15:49:22;;;;;;;7.15;2.80;;;18.70;45.50;;;;;;9175209;19;20030;-69
2022/04/20 15:52:29;;;;;;;11.15;2.78;;;18.70;45.60;;;;;;9177256;19;20010;-68
2022/04/20 16:02:13;;;;;;;4.72;2.60;;;18.60;45.70;;;;;;9172085;19;20022;-70
2022/04/20 16:05:18;;;;;;;5.13;2.33;;;18.60;45.60;;;;;;9170841;19;20119;-69
2022/04/20 16:08:23;;;;;;;6.22;2.45;;;18.60;45.70;;;;;;9169779;19;20022;-69
2022/04/20 16:11:29;;;;;;;4.30;2.00;;;18.60;45.70;;;;;;9172932;19;20018;-70
2022/04/20 16:14:36;;;;;;;4.43;2.30;;;18.50;45.70;;;;;;9172475;19;20019;-69
2022/04/20 16:17:45;;;;;;;7.88;2.50;;;18.50;45.70;;;;;;9166027;19;20018;-69
2022/04/20 16:20:50;;;;;;;5.30;2.53;;;18.50;45.70;;;;;;9162546;19;20602;-70
2022/04/20 16:23:55;;;;;;;4.25;2.63;;;18.40;45.60;;;;;;9167149;19;20019;-71
2022/04/20 16:27:00;;;;;;;5.55;2.50;;;18.40;45.70;;;;;;9168582;19;20026;-70
2022/04/20 16:30:07;;;;;;;5.65;2.40;;;18.30;45.70;;;;;;9168773;19;20011;-70
2022/04/20 16:33:18;;;;;;;5.28;2.65;;;18.30;45.70;;;;;;9169349;19;20344;-70
2022/04/20 16:36:23;;;;;;;4.90;2.60;;;18.20;45.70;;;;;;9168568;19;20022;-66
2022/04/20 16:39:28;;;;;;;7.45;2.95;;;18.20;45.70;;;;;;9168846;19;20051;-66
2022/04/20 16:42:35;;;;;;;6.00;2.92;;;18.10;45.70;;;;;;9169841;19;20037;-66
2022/04/20 16:45:40;;;;;;;6.88;2.45;;;18.10;45.70;;;;;;9165670;19;20021;-66
2022/04/20 16:48:48;;;;;;;7.72;2.70;;;18.10;45.90;;;;;;9170682;19;20055;-66
2022/04/20 16:51:53;;;;;;;13.00;2.72;;;18.10;45.90;;;;;;9167949;19;20451;-65
2022/04/20 16:54:58;;;;;;;7.63;3.25;;;18.00;45.80;;;;;;9168034;19;20708;-64
2022/04/20 16:58:03;;;;;;;5.68;3.35;;;18.00;45.80;;;;;;9167744;19;20503;-65
2022/04/20 17:01:08;;;;;;;7.60;3.70;;;17.90;45.70;;;;;;9168447;19;20022;-65
2022/04/20 17:04:16;;;;;;;11.02;3.50;;;17.90;45.70;;;;;;9167869;19;20060;-64
2022/04/20 17:07:21;;;;;;;7.50;3.85;;;17.80;45.70;;;;;;9167131;19;20508;-65
2022/04/20 17:10:26;;;;;;;4.88;3.70;;;17.80;45.70;;;;;;9166950;19;20022;-64
2022/04/20 17:13:31;;;;;;;6.85;3.72;;;17.70;45.70;;;;;;9166243;19;20711;-65
2022/04/20 17:16:36;;;;;;;6.20;3.65;;;17.70;45.60;;;;;;9164393;19;20019;-65
2022/04/20 17:19:43;;;;;;;4.68;3.55;;;17.60;45.60;;;;;;9169087;19;20629;-65
2022/04/20 17:29:23;;;;;;;9.00;3.42;;;17.50;45.70;;;;;;9177319;19;20018;-64
2022/04/20 17:32:29;;;;;;;11.65;3.55;;;17.40;45.70;;;;;;9176287;19;20487;-64
2022/04/20 17:38:54;;;;;;;8.65;3.17;;;17.30;45.70;;;;;;9176845;19;20385;-64
2022/04/20 17:42:00;;;;;;;9.93;3.42;;;17.30;45.70;;;;;;9174358;19;20030;-63